INFORMACIÓN METAR y TAF
METAR FOR ESMQ
ADDS - METARS form results

(0154 UTC 22 February 2019)
Data provider http://aviationweather.gov/metar/data/
 
METAR text: ESMQ 220150Z AUTO 36004KT 9999 NCD M05/M08 Q1034
Conditions at: ESMQ (KALMAR , SE) observed 0150 UTC 22 February 2019
Temperature: -5.0°C (23°F)
Dewpoint: -8.0°C (18°F) [RH = 79%]
Pressure (altimeter): 30.53 inches Hg (1034.0 mb)
Winds: from the N (360 degrees) at 5 MPH (4 knots; 2.1 m/s)
Visibility: 6 or more miles (10+ km)
Ceiling: at least 12,000 feet AGL
Clouds: sky clear below 12,000 feet AGL
Weather: no significant weather observed at this time

METAR text: ESMQ 220120Z AUTO 02005KT 9999 NCD M03/M06 Q1034
Conditions at: ESMQ (KALMAR , SE) observed 0120 UTC 22 February 2019
Temperature: -3.0°C (27°F)
Dewpoint: -6.0°C (21°F) [RH = 80%]
Pressure (altimeter): 30.53 inches Hg (1034.0 mb)
Winds: from the NNE (20 degrees) at 6 MPH (5 knots; 2.6 m/s)
Visibility: 6 or more miles (10+ km)
Ceiling: at least 12,000 feet AGL
Clouds: sky clear below 12,000 feet AGL
Weather: no significant weather observed at this time

Forecast for: ESMQ (KALMAR , SE)
Text: TAF ESMQ 212030Z 2121/2123 08009KT 9999 BKN040
Forecast period: 2100 to 2300 UTC 21 February 2019
Forecast type: FROM: standard forecast or significant change
Winds: from the E (80 degrees) at 10 MPH (9 knots; 4.6 m/s)
Visibility: 6 or more miles 10+ km)
Ceiling: 4000 feet AGL
Clouds: broken clouds at 4000 feet AGL
Weather: no significant weather forecast for this period
Text: TEMPO 2121/2122 BKN013
Forecast period: 2100 to 2200 UTC 21 February 2019
Forecast type: TEMPORARY: The following changes expected for less than half the time period
Visibility: missing
Ceiling: 1300 feet AGL
Clouds: broken clouds at 1300 feet AGL
Weather: no significant weather forecast for this period

 MAPA DE AEROPUERTO

 INFORMACIÓN DE PISTA
Pista 05 Longitud 2179 ft Ancho 131 ft
Elevación 9 ft Umbral desplazado 0 ft Rumbo de pista 48
Pista 23 Longitud 2179 ft Ancho 131 ft
Elevación 11 ft Umbral desplazado 0 ft Rumbo de pista 228
Pista 16 Longitud 6726 ft Ancho 148 ft
Elevación 17 ft Umbral desplazado 0 ft Rumbo de pista 152
Pista 34 Longitud 6726 ft Ancho 148 ft
Elevación 15 ft Umbral desplazado 0 ft Rumbo de pista 332

 FRECUANCIAS DEL AEROPUERTO
Tipo TWR Nombre TWR Frecuencia 130.8 MHZ

 RADIO AYUDAS DEL AEROPUERTO
Tipo VOR-DME Nombre Kalmar Frecuencia 111600 KHZ



Powered by Virtual Airlines Manager [v2.6.2]